Navaho — 9HNR6 — position and weather

sailwx.info

Track history (hours):
 
Tides and Currents Weather Stations Pressure Air Temp Water Temp Dewpoint Dewpoint Depression Visibility Wind Speed Wind Dir Waves Ship Positions

Navaho

Last reported at 2018-Feb-19 13:57 UTC. Time now 2018-Feb-24 04:37 UTC.
Position N 45°13' E 036°28'.

Length 140 m; draft 3.8 m.

Type: Cargo ship. MMSI: 248681000.

Date/timePositionNaut miles runAvg speedWind from/ knotsBaromVisibWave heightAir tempDewpointWater temp
2018-Feb-19 13:57N 45°13' E 036°28'3 5.6
2018-Feb-19 13:30N 45°16' E 036°28'3 6.1
2018-Feb-19 13:00N 45°18' E 036°30'4 7.4
2018-Feb-19 12:30N 45°20' E 036°35'4 7.1
2018-Feb-19 12:00N 45°21' E 036°39'4 7.1
2018-Feb-19 11:30N 45°25' E 036°41'3 5.8
2018-Feb-19 11:00N 45°28' E 036°41'1 2.5
2018-Feb-19 10:30N 45°28' E 036°39'0 0.0
2018-Feb-19 10:00N 45°28' E 036°39'0 0.0
2018-Feb-19 09:30N 45°28' E 036°39'0 0.1
2018-Feb-19 09:00N 45°28' E 036°39'0 0.2
2018-Feb-19 08:30N 45°28' E 036°39'  
Track history (hours):
 
Tides and Currents Weather Stations Pressure Air Temp Water Temp Dewpoint Dewpoint Depression Visibility Wind Speed Wind Dir Waves Ship Positions

Navaho

Last reported at 2018-Feb-19 13:57 UTC. Time now 2018-Feb-24 04:37 UTC.
Position N 45°13' E 036°28'.

Length 140 m; draft 3.8 m.

Type: Cargo ship. MMSI: 248681000.

Date/timePositionNaut miles runAvg speedWind from/ knotsBaromVisibWave heightAir tempDewpointWater temp
2018-Feb-19 13:57N 45°13' E 036°28'3 5.6
2018-Feb-19 13:30N 45°16' E 036°28'3 6.1
2018-Feb-19 13:00N 45°18' E 036°30'4 7.4
2018-Feb-19 12:30N 45°20' E 036°35'4 7.1
2018-Feb-19 12:00N 45°21' E 036°39'4 7.1
2018-Feb-19 11:30N 45°25' E 036°41'3 5.8
2018-Feb-19 11:00N 45°28' E 036°41'1 2.5
2018-Feb-19 10:30N 45°28' E 036°39'0 0.0
2018-Feb-19 10:00N 45°28' E 036°39'0 0.0
2018-Feb-19 09:30N 45°28' E 036°39'0 0.1
2018-Feb-19 09:00N 45°28' E 036°39'0 0.2
2018-Feb-19 08:30N 45°28' E 036°39'  

Dump ship's entire track history